Flight Track Log - Related Links

Times and Time Zones

All times are in EDT time to prevent confusion due to time zone crossing. See the EMD21 flight status page for this flight to view local times or setup timezone preferences in your user account.

Time Position Orientation Groundspeed Altitude Reporting Facility
EDT Latitude Longitude Course Direction KTS MPH feet Rate Location/Type
Tue 06:12:16 PM 36.1500 -86.7000 310° West 151 174 1,100  Level Nashville TRACON
Tue 06:13:28 PM 36.1833 -86.7500 310° West 162 186 2,500 1,115 Climbing Nashville TRACON
Tue 06:14:52 PM 36.2000 -86.8333 284° West 187 215 4,000 1,000 Climbing Nashville TRACON
Tue 06:15:52 PM 36.2167 -86.9000 287° West 190 219 4,900 588 Climbing Nashville TRACON
Tue 06:16:34 PM 36.2333 -86.9333 302° West 205 236 5,000 400 Climbing Nashville TRACON
Tue 06:17:07 PM 36.2356 -86.9836 273° West 214 246 5,400 710 Climbing Memphis Center
Tue 06:18:07 PM 36.2231 -87.0536 258° West 217 250 6,100 750 Climbing Memphis Center
Tue 06:19:07 PM 36.2119 -87.1158 258° West 210 242 6,900 750 Climbing Memphis Center
Tue 06:20:07 PM 36.1972 -87.1858 255° West 210 242 7,600 750 Climbing Memphis Center
Tue 06:21:07 PM 36.1844 -87.2533 257° West 210 242 8,400 700 Climbing Memphis Center
Tue 06:22:07 PM 36.1714 -87.3256 257° West 210 242 9,000 650 Climbing Memphis Center
Tue 06:23:07 PM 36.1692 -87.3978 268° West 205 236 9,700 850 Climbing Memphis Center
Tue 06:24:07 PM 36.1625 -87.4750 264° West 205 236 10,700 900 Climbing Memphis Center
Tue 06:25:07 PM 36.1475 -87.5450 255° West 205 236 11,500 850 Climbing Memphis Center
Tue 06:26:07 PM 36.1406 -87.6094 262° West 200 230 12,400 800 Climbing Memphis Center
Tue 06:27:07 PM 36.1336 -87.6739 262° West 195 224 13,100 700 Climbing Memphis Center
Tue 06:28:07 PM 36.1247 -87.7386 260° West 195 224 13,800 500 Climbing Memphis Center
Tue 06:29:07 PM 36.1178 -87.8081 263° West 202 232 14,100 100 Climbing Memphis Center
Tue 06:30:07 PM 36.1131 -87.8803 265° West 202 232 14,000 -50 Descending Memphis Center
Tue 06:31:07 PM 36.0997 -87.9550 258° West 219 252 14,000  Level Memphis Center
Tue 06:32:07 PM 36.0908 -88.0300 262° West 219 252 14,000  Level Memphis Center
Tue 06:33:07 PM 36.0817 -88.1047 261° West 224 258 14,000  Level Memphis Center
Tue 06:34:07 PM 36.0808 -88.1689 269° West 213 245 14,000  Level Memphis Center
Tue 06:35:07 PM 36.0697 -88.2436 260° West 219 252 14,000  Level Memphis Center
Tue 06:36:07 PM 36.0606 -88.3158 261° West 219 252 14,000  Level Memphis Center
Tue 06:37:07 PM 36.0511 -88.3903 261° West 219 252 14,000  Level Memphis Center
Tue 06:38:07 PM 36.0419 -88.4650 261° West 219 252 14,000  Level Memphis Center
Tue 06:39:07 PM 36.0325 -88.5372 261° West 219 252 14,000  Level Memphis Center
Tue 06:40:07 PM 36.0233 -88.6119 261° West 219 252 14,000  Level Memphis Center
Tue 06:41:07 PM 36.0139 -88.6839 261° West 219 252 14,000  Level Memphis Center
Tue 06:42:07 PM 36.0022 -88.7586 259° West 219 252 14,000  Level Memphis Center
Tue 06:43:07 PM 35.9928 -88.8331 261° West 219 252 14,000  Level Memphis Center
Tue 06:44:07 PM 35.9833 -88.9078 261° West 219 252 14,000  Level Memphis Center
Tue 06:45:07 PM 35.9736 -88.9822 261° West 224 258 14,000  Level Memphis Center
Tue 06:46:07 PM 35.9619 -89.0567 259° West 224 258 14,000  Level Memphis Center
Tue 06:47:08 PM 35.9525 -89.1389 262° West 224 258 14,000  Level Memphis Center
Tue 06:48:07 PM 35.9447 -89.2136 263° West 224 258 14,000  Level Memphis Center
Tue 06:49:08 PM 35.9308 -89.2881 257° West 224 258 14,000  Level Memphis Center
Tue 06:50:07 PM 35.9231 -89.3625 263° West 224 258 14,000  Level Memphis Center
Tue 06:51:07 PM 35.9153 -89.4394 263° West 224 258 14,000  Level Memphis Center
Tue 06:52:08 PM 35.9014 -89.5139 257° West 224 258 14,000  Level Memphis Center
Tue 06:53:07 PM 35.8933 -89.5883 262° West 224 258 14,000  Level Memphis Center
Tue 06:54:07 PM 35.8856 -89.6653 263° West 224 258 14,000  Level Memphis Center
Tue 06:55:07 PM 35.8714 -89.7397 257° West 224 258 14,000  Level Memphis Center
Tue 06:56:07 PM 35.8614 -89.8167 261° West 224 258 14,000  Level Memphis Center
Tue 06:57:07 PM 35.8511 -89.8908 260° West 224 258 14,000  Level Memphis Center
Tue 06:58:07 PM 35.8411 -89.9678 261° West 224 258 14,000 50 Level Memphis Center
Tue 06:59:08 PM 35.8308 -90.0419 260° West 224 258 14,100  Climbing Memphis Center
Tue 07:00:07 PM 35.8206 -90.1189 261° West 224 258 14,000 -50 Descending Memphis Center
Tue 07:01:07 PM 35.8103 -90.1958 261° West 224 258 14,000  Level Memphis Center
Tue 07:02:07 PM 35.7978 -90.2725 259° West 224 258 14,000 50 Level Memphis Center
Tue 07:03:07 PM 35.7875 -90.3442 260° West 224 258 14,100 50 Climbing Memphis Center
Tue 07:04:07 PM 35.7792 -90.4236 263° West 224 258 14,100 -50 Level Memphis Center
Tue 07:05:07 PM 35.7686 -90.4978 260° West 224 258 14,000  Descending Memphis Center
Tue 07:06:07 PM 35.7561 -90.5719 258° West 224 258 14,100  Climbing Memphis Center
Tue 07:07:07 PM 35.7456 -90.6461 260° West 218 251 14,000 -50 Descending Memphis Center
Tue 07:08:07 PM 35.7328 -90.7203 258° West 218 251 14,000  Level Memphis Center
Tue 07:09:07 PM 35.7242 -90.7969 262° West 218 251 14,000  Level Memphis Center
Tue 07:10:07 PM 35.7133 -90.8683 259° West 218 251 14,000 50 Level Memphis Center
Tue 07:11:07 PM 35.7028 -90.9425 260° West 218 251 14,100 50 Climbing Memphis Center
Tue 07:12:07 PM 35.6897 -91.0164 258° West 223 257 14,100 -50 Level Memphis Center
Tue 07:13:08 PM 35.6853 -91.0906 266° West 223 257 14,000  Descending Memphis Center
Tue 07:14:07 PM 35.6703 -91.1672 256° West 223 257 14,100 50 Climbing Memphis Center
Tue 07:15:07 PM 35.6633 -91.2361 263° West 223 257 14,100  Level Memphis Center
Tue 07:16:07 PM 35.6483 -91.3125 256° West 223 257 14,100 -50 Level Memphis Center
Tue 07:17:07 PM 35.6372 -91.3864 260° West 217 250 14,000  Descending Memphis Center
Tue 07:18:07 PM 35.6283 -91.4631 262° West 223 257 14,100  Climbing Memphis Center
Tue 07:19:07 PM 35.6214 -91.5369 263° West 223 257 14,000  Descending Memphis Center
Tue 07:20:07 PM 35.6061 -91.6133 256° West 223 257 14,100 50 Climbing Memphis Center
Tue 07:21:07 PM 35.5947 -91.6847 259° West 223 257 14,100  Level Memphis Center
Tue 07:22:07 PM 35.5814 -91.7611 258° West 223 257 14,100  Level Memphis Center
Tue 07:23:07 PM 35.5681 -91.8347 257° West 223 257 14,100 -50 Level Memphis Center
Tue 07:24:07 PM 35.5547 -91.9111 258° West 223 257 14,000 -50 Descending Memphis Center
Tue 07:25:07 PM 35.5453 -91.9850 261° West 223 257 14,000 50 Level Memphis Center
Tue 07:26:07 PM 35.5339 -92.0614 260° West 223 257 14,100  Climbing Memphis Center
Tue 07:27:08 PM 35.5225 -92.1375 260° West 223 257 14,000  Descending Memphis Center
Tue 07:28:07 PM 35.5108 -92.2139 259° West 223 257 14,100 50 Climbing Memphis Center
Tue 07:29:07 PM 35.4972 -92.2875 257° West 223 257 14,100  Level Memphis Center
Tue 07:30:07 PM 35.4856 -92.3636 259° West 223 257 14,100  Level Memphis Center
Tue 07:31:07 PM 35.4739 -92.4425 260° West 228 262 14,100  Level Memphis Center
Tue 07:32:07 PM 35.4603 -92.5161 257° West 228 262 14,100  Level Memphis Center
Tue 07:33:07 PM 35.4483 -92.5922 259° West 228 262 14,100 -50 Level Memphis Center
Tue 07:34:07 PM 35.4367 -92.6708 260° West 238 274 14,000 -50 Descending Memphis Center
Tue 07:35:07 PM 35.4225 -92.7469 257° West 238 274 14,000 50 Level Memphis Center
Tue 07:36:07 PM 35.4106 -92.8256 259° West 238 274 14,100 50 Climbing Memphis Center
Tue 07:37:07 PM 35.3967 -92.9017 257° West 238 274 14,100  Level Memphis Center
Tue 07:38:07 PM 35.3869 -92.9650 259° West 238 274 14,100  Level Memphis Center
Tue 07:39:07 PM 35.3722 -93.0664 260° West 252 290 14,100  Level Memphis Center
Tue 07:40:07 PM 35.3564 -93.1294 253° West 238 274 14,100  Level Memphis Center
Tue 07:41:07 PM 35.3358 -93.2025 251° West 238 274 14,100  Level Memphis Center
Tue 07:42:07 PM 35.3153 -93.2783 252° West 243 280 14,100  Level Memphis Center
Tue 07:43:07 PM 35.2928 -93.3539 250° West 243 280 14,100  Level Memphis Center
Tue 07:44:08 PM 35.2719 -93.4319 252° West 243 280 14,100  Level Memphis Center
Tue 07:45:07 PM 35.2514 -93.5047 251° West 243 280 14,100  Level Memphis Center
Tue 07:46:07 PM 35.2286 -93.5803 250° West 243 280 14,100  Level Memphis Center
Tue 07:47:07 PM 35.2100 -93.6558 253° West 243 280 14,100 -50 Level Memphis Center
Tue 07:48:07 PM 35.1869 -93.7336 250° West 243 280 14,000 -50 Descending Memphis Center
Tue 07:49:07 PM 35.1664 -93.8064 251° West 243 280 14,000  Level Memphis Center
Tue 07:50:07 PM 35.1453 -93.8817 251° West 243 280 14,000 50 Level Memphis Center
Tue 07:51:07 PM 35.1264 -93.9597 254° West 243 280 14,100  Climbing Memphis Center
Tue 07:52:07 PM 35.1056 -94.0375 252° West 243 280 14,000  Descending Memphis Center
Tue 07:53:07 PM 35.0928 -94.1156 259° West 243 280 14,100 50 Climbing Memphis Center
Tue 07:54:07 PM 35.0883 -94.1889 266° West 237 273 14,100  Level Memphis Center
Tue 07:55:07 PM 35.0817 -94.2697 264° West 237 273 14,100  Level Memphis Center
Tue 07:56:07 PM 35.0667 -94.3503 257° West 237 273 14,100  Level Memphis Center
Tue 07:57:24 PM 35.0586 -94.4611 265° West 252 290 14,100  Level Fort Worth Center
Tue 07:58:25 PM 35.0500 -94.5375 262° West 241 277 14,100 -50 Level Fort Worth Center
Tue 07:59:24 PM 35.0372 -94.6167 259° West 235 270 14,000 -101 Descending Fort Worth Center
Tue 08:00:24 PM 35.0286 -94.6931 262° West 235 270 13,900 -446 Descending Fort Worth Center
Tue 08:01:25 PM 35.0175 -94.7669 260° West 240 276 13,100 -600 Descending Fort Worth Center
Tue 08:02:24 PM 35.0089 -94.8533 263° West 253 291 12,700 -908 Descending Fort Worth Center
Tue 08:03:24 PM 34.9981 -94.9425 262° West 253 291 11,300 -1,289 Descending Fort Worth Center
Tue 08:04:25 PM 34.9853 -95.0239 259° West 253 291 10,100 -1,050 Descending Fort Worth Center
Tue 08:05:24 PM 34.9742 -95.1053 261° West 253 291 9,200 -1,059 Descending Fort Worth Center
Tue 08:06:24 PM 34.9692 -95.1764 265° West 248 285 8,000 -1,190 Descending Fort Worth Center
Tue 08:07:25 PM 34.9561 -95.2628 260° West 248 285 6,800 -1,250 Descending Fort Worth Center
Tue 08:08:24 PM 34.9450 -95.3417 260° West 248 285 5,500 -1,210 Descending Fort Worth Center
Tue 08:09:24 PM 34.9358 -95.4203 262° West 248 285 4,400 -1,100 Descending Fort Worth Center

Login

Don't have an account? Register now (free) for customized features, flight alerts, and more!